Folsomville, Indiana
Current Conditions -  °F | °C
As of 4:15 PM on Monday 24 Nov 2014 (Local Time) from KHNB Reporting Station
Overcast Overcast  
Wind Chill: 41°   Ceiling: 6000
Heat Index: 45°   Visibility: 10mi
Dew Point: 34°   Wind: 6mph
Humidity: 66%   Direction: 280°W
Pressure: 29.82"   Gusts: NA
Location:  38.13°N, 87.16°W
Report Text: KHNB 242215Z AUTO 28005KT 10SM FEW035 SCT044 OVC060 07/01 A2982 RMK AO1
Loading
Personal Weather Stations






























Interactive Weather Map New forecast layout! Learn more

10-Day Weather Forecast

Advertisements
Track Severe Weather on mobile